sensor_id;sensor_type;location;lat;lon;timestamp;P1;durP1;ratioP1;P2;durP2;ratioP2
44169;SDS011;29836;52.286;9.576;2023-07-13T00:01:54;3.72;;;1.65;;
44169;SDS011;29836;52.286;9.576;2023-07-13T00:04:21;3.97;;;1.55;;
44169;SDS011;29836;52.286;9.576;2023-07-13T00:06:48;3.70;;;1.48;;
44169;SDS011;29836;52.286;9.576;2023-07-13T00:09:15;2.08;;;1.45;;
44169;SDS011;29836;52.286;9.576;2023-07-13T00:11:42;3.38;;;1.60;;
44169;SDS011;29836;52.286;9.576;2023-07-13T00:14:09;2.83;;;1.40;;
44169;SDS011;29836;52.286;9.576;2023-07-13T00:16:35;2.22;;;1.40;;
44169;SDS011;29836;52.286;9.576;2023-07-13T00:19:03;3.75;;;1.70;;
44169;SDS011;29836;52.286;9.576;2023-07-13T00:21:29;3.50;;;1.60;;
44169;SDS011;29836;52.286;9.576;2023-07-13T00:23:55;4.10;;;1.65;;
44169;SDS011;29836;52.286;9.576;2023-07-13T00:26:20;3.78;;;1.77;;
44169;SDS011;29836;52.286;9.576;2023-07-13T00:28:46;3.72;;;1.85;;
44169;SDS011;29836;52.286;9.576;2023-07-13T00:31:12;3.45;;;1.77;;
44169;SDS011;29836;52.286;9.576;2023-07-13T00:33:39;3.70;;;1.80;;
44169;SDS011;29836;52.286;9.576;2023-07-13T00:36:05;4.53;;;1.92;;
44169;SDS011;29836;52.286;9.576;2023-07-13T00:38:31;5.05;;;1.90;;
44169;SDS011;29836;52.286;9.576;2023-07-13T00:40:57;3.33;;;1.80;;
44169;SDS011;29836;52.286;9.576;2023-07-13T00:43:26;6.30;;;2.15;;
44169;SDS011;29836;52.286;9.576;2023-07-13T00:48:20;3.83;;;1.83;;
44169;SDS011;29836;52.286;9.576;2023-07-13T00:50:49;3.97;;;1.63;;
44169;SDS011;29836;52.286;9.576;2023-07-13T00:53:18;2.80;;;1.60;;
44169;SDS011;29836;52.286;9.576;2023-07-13T00:55:45;3.28;;;1.73;;
44169;SDS011;29836;52.286;9.576;2023-07-13T00:58:11;3.35;;;1.88;;
44169;SDS011;29836;52.286;9.576;2023-07-13T01:00:38;3.33;;;1.75;;
44169;SDS011;29836;52.286;9.576;2023-07-13T01:03:04;3.53;;;1.60;;
44169;SDS011;29836;52.286;9.576;2023-07-13T01:05:32;2.42;;;1.48;;
44169;SDS011;29836;52.286;9.576;2023-07-13T01:07:59;3.65;;;1.60;;
44169;SDS011;29836;52.286;9.576;2023-07-13T01:10:26;2.92;;;1.60;;
44169;SDS011;29836;52.286;9.576;2023-07-13T01:12:52;3.35;;;1.70;;
44169;SDS011;29836;52.286;9.576;2023-07-13T01:15:35;4.20;;;1.70;;
44169;SDS011;29836;52.286;9.576;2023-07-13T01:18:01;3.55;;;1.58;;
44169;SDS011;29836;52.286;9.576;2023-07-13T01:20:28;5.15;;;1.85;;
44169;SDS011;29836;52.286;9.576;2023-07-13T01:22:54;5.78;;;1.58;;
44169;SDS011;29836;52.286;9.576;2023-07-13T01:25:20;3.60;;;1.73;;
44169;SDS011;29836;52.286;9.576;2023-07-13T01:27:46;4.10;;;1.70;;
44169;SDS011;29836;52.286;9.576;2023-07-13T01:30:11;3.05;;;1.60;;
44169;SDS011;29836;52.286;9.576;2023-07-13T01:32:37;4.20;;;1.80;;
44169;SDS011;29836;52.286;9.576;2023-07-13T01:35:07;6.07;;;1.92;;
44169;SDS011;29836;52.286;9.576;2023-07-13T01:37:32;4.88;;;1.95;;
44169;SDS011;29836;52.286;9.576;2023-07-13T01:40:00;6.00;;;2.10;;
44169;SDS011;29836;52.286;9.576;2023-07-13T01:42:27;3.20;;;1.35;;
44169;SDS011;29836;52.286;9.576;2023-07-13T01:44:53;3.50;;;2.03;;
44169;SDS011;29836;52.286;9.576;2023-07-13T01:47:19;4.00;;;1.88;;
44169;SDS011;29836;52.286;9.576;2023-07-13T01:49:44;5.50;;;1.98;;
44169;SDS011;29836;52.286;9.576;2023-07-13T01:52:12;4.53;;;1.80;;
44169;SDS011;29836;52.286;9.576;2023-07-13T01:54:37;5.50;;;2.13;;
44169;SDS011;29836;52.286;9.576;2023-07-13T01:57:03;3.92;;;1.85;;
44169;SDS011;29836;52.286;9.576;2023-07-13T01:59:29;5.80;;;1.90;;
44169;SDS011;29836;52.286;9.576;2023-07-13T02:01:54;5.00;;;1.80;;
44169;SDS011;29836;52.286;9.576;2023-07-13T02:04:20;4.05;;;1.88;;
44169;SDS011;29836;52.286;9.576;2023-07-13T02:06:45;3.97;;;1.90;;
44169;SDS011;29836;52.286;9.576;2023-07-13T02:09:11;5.82;;;2.00;;
44169;SDS011;29836;52.286;9.576;2023-07-13T02:11:36;6.35;;;2.08;;
44169;SDS011;29836;52.286;9.576;2023-07-13T02:14:02;3.92;;;1.77;;
44169;SDS011;29836;52.286;9.576;2023-07-13T02:16:28;6.55;;;2.03;;
44169;SDS011;29836;52.286;9.576;2023-07-13T02:18:54;4.55;;;2.00;;
44169;SDS011;29836;52.286;9.576;2023-07-13T02:21:20;5.78;;;2.10;;
44169;SDS011;29836;52.286;9.576;2023-07-13T02:23:47;2.85;;;1.83;;
44169;SDS011;29836;52.286;9.576;2023-07-13T02:26:13;3.78;;;2.10;;
44169;SDS011;29836;52.286;9.576;2023-07-13T02:28:39;4.70;;;2.13;;
44169;SDS011;29836;52.286;9.576;2023-07-13T02:31:08;6.40;;;1.90;;
44169;SDS011;29836;52.286;9.576;2023-07-13T02:33:35;5.60;;;2.00;;
44169;SDS011;29836;52.286;9.576;2023-07-13T02:36:01;4.65;;;1.75;;
44169;SDS011;29836;52.286;9.576;2023-07-13T02:38:26;5.30;;;1.75;;
44169;SDS011;29836;52.286;9.576;2023-07-13T02:40:52;2.30;;;1.63;;
44169;SDS011;29836;52.286;9.576;2023-07-13T02:43:18;5.40;;;1.88;;
44169;SDS011;29836;52.286;9.576;2023-07-13T02:45:44;4.57;;;1.95;;
44169;SDS011;29836;52.286;9.576;2023-07-13T02:48:12;4.32;;;1.92;;
44169;SDS011;29836;52.286;9.576;2023-07-13T02:50:38;5.22;;;1.90;;
44169;SDS011;29836;52.286;9.576;2023-07-13T02:53:04;5.95;;;1.50;;
44169;SDS011;29836;52.286;9.576;2023-07-13T02:55:29;4.07;;;1.75;;
44169;SDS011;29836;52.286;9.576;2023-07-13T02:57:55;3.10;;;1.70;;
44169;SDS011;29836;52.286;9.576;2023-07-13T03:00:20;3.25;;;1.98;;
44169;SDS011;29836;52.286;9.576;2023-07-13T03:02:46;2.88;;;1.67;;
44169;SDS011;29836;52.286;9.576;2023-07-13T03:05:11;3.90;;;1.83;;
44169;SDS011;29836;52.286;9.576;2023-07-13T03:07:37;3.85;;;1.80;;
44169;SDS011;29836;52.286;9.576;2023-07-13T03:10:04;4.85;;;1.83;;
44169;SDS011;29836;52.286;9.576;2023-07-13T03:12:31;6.15;;;1.80;;
44169;SDS011;29836;52.286;9.576;2023-07-13T03:14:57;4.95;;;1.80;;
44169;SDS011;29836;52.286;9.576;2023-07-13T03:17:22;2.75;;;1.55;;
44169;SDS011;29836;52.286;9.576;2023-07-13T03:19:48;3.95;;;1.58;;
44169;SDS011;29836;52.286;9.576;2023-07-13T03:22:16;4.45;;;2.00;;
44169;SDS011;29836;52.286;9.576;2023-07-13T03:24:45;3.85;;;1.60;;
44169;SDS011;29836;52.286;9.576;2023-07-13T03:27:11;4.85;;;1.83;;
44169;SDS011;29836;52.286;9.576;2023-07-13T03:29:36;3.75;;;1.80;;
44169;SDS011;29836;52.286;9.576;2023-07-13T03:32:02;4.53;;;1.65;;
44169;SDS011;29836;52.286;9.576;2023-07-13T03:34:29;4.80;;;1.75;;
44169;SDS011;29836;52.286;9.576;2023-07-13T03:36:55;5.88;;;2.00;;
44169;SDS011;29836;52.286;9.576;2023-07-13T03:39:21;2.60;;;1.35;;
44169;SDS011;29836;52.286;9.576;2023-07-13T03:41:46;4.78;;;1.80;;
44169;SDS011;29836;52.286;9.576;2023-07-13T03:44:12;7.07;;;1.88;;
44169;SDS011;29836;52.286;9.576;2023-07-13T03:46:38;4.75;;;1.90;;
44169;SDS011;29836;52.286;9.576;2023-07-13T03:49:04;4.50;;;1.55;;
44169;SDS011;29836;52.286;9.576;2023-07-13T03:51:30;5.00;;;1.90;;
44169;SDS011;29836;52.286;9.576;2023-07-13T03:53:56;4.82;;;1.85;;
44169;SDS011;29836;52.286;9.576;2023-07-13T03:56:22;4.45;;;2.00;;
44169;SDS011;29836;52.286;9.576;2023-07-13T03:58:48;4.18;;;1.80;;
44169;SDS011;29836;52.286;9.576;2023-07-13T04:01:15;5.13;;;1.75;;
44169;SDS011;29836;52.286;9.576;2023-07-13T04:03:42;5.07;;;1.70;;
44169;SDS011;29836;52.286;9.576;2023-07-13T04:06:12;6.72;;;1.85;;
44169;SDS011;29836;52.286;9.576;2023-07-13T04:08:40;5.43;;;1.88;;
44169;SDS011;29836;52.286;9.576;2023-07-13T04:11:06;6.65;;;2.08;;
44169;SDS011;29836;52.286;9.576;2023-07-13T04:13:32;5.38;;;1.73;;
44169;SDS011;29836;52.286;9.576;2023-07-13T04:15:58;8.20;;;2.40;;
44169;SDS011;29836;52.286;9.576;2023-07-13T04:18:23;6.70;;;1.80;;
44169;SDS011;29836;52.286;9.576;2023-07-13T04:20:49;4.90;;;1.98;;
44169;SDS011;29836;52.286;9.576;2023-07-13T04:23:18;5.85;;;1.80;;
44169;SDS011;29836;52.286;9.576;2023-07-13T04:25:45;7.35;;;1.95;;
44169;SDS011;29836;52.286;9.576;2023-07-13T04:28:14;5.20;;;2.03;;
44169;SDS011;29836;52.286;9.576;2023-07-13T04:30:43;4.70;;;1.80;;
44169;SDS011;29836;52.286;9.576;2023-07-13T04:33:09;5.90;;;1.70;;
44169;SDS011;29836;52.286;9.576;2023-07-13T04:35:35;4.88;;;1.90;;
44169;SDS011;29836;52.286;9.576;2023-07-13T04:38:01;9.82;;;2.28;;
44169;SDS011;29836;52.286;9.576;2023-07-13T04:40:27;5.57;;;1.92;;
44169;SDS011;29836;52.286;9.576;2023-07-13T04:42:54;7.68;;;1.80;;
44169;SDS011;29836;52.286;9.576;2023-07-13T04:45:19;3.92;;;1.67;;
44169;SDS011;29836;52.286;9.576;2023-07-13T04:47:45;5.68;;;1.95;;
44169;SDS011;29836;52.286;9.576;2023-07-13T04:50:12;8.90;;;2.00;;
44169;SDS011;29836;52.286;9.576;2023-07-13T04:52:46;6.45;;;1.98;;
44169;SDS011;29836;52.286;9.576;2023-07-13T04:55:11;6.55;;;2.00;;
44169;SDS011;29836;52.286;9.576;2023-07-13T04:57:37;7.30;;;2.00;;
44169;SDS011;29836;52.286;9.576;2023-07-13T05:00:03;5.93;;;1.85;;
44169;SDS011;29836;52.286;9.576;2023-07-13T05:02:31;6.40;;;2.05;;
44169;SDS011;29836;52.286;9.576;2023-07-13T05:04:57;4.72;;;2.05;;
44169;SDS011;29836;52.286;9.576;2023-07-13T05:07:23;8.30;;;2.08;;
44169;SDS011;29836;52.286;9.576;2023-07-13T05:09:50;7.40;;;2.20;;
44169;SDS011;29836;52.286;9.576;2023-07-13T05:12:15;6.70;;;1.77;;
44169;SDS011;29836;52.286;9.576;2023-07-13T05:14:41;7.22;;;2.08;;
44169;SDS011;29836;52.286;9.576;2023-07-13T05:17:06;9.55;;;2.15;;
44169;SDS011;29836;52.286;9.576;2023-07-13T05:19:32;5.15;;;1.73;;
44169;SDS011;29836;52.286;9.576;2023-07-13T05:21:57;5.25;;;1.65;;
44169;SDS011;29836;52.286;9.576;2023-07-13T05:24:23;7.15;;;1.90;;
44169;SDS011;29836;52.286;9.576;2023-07-13T05:26:49;6.28;;;1.52;;
44169;SDS011;29836;52.286;9.576;2023-07-13T05:29:14;10.38;;;2.45;;
44169;SDS011;29836;52.286;9.576;2023-07-13T05:31:40;6.95;;;1.90;;
44169;SDS011;29836;52.286;9.576;2023-07-13T05:34:05;7.75;;;2.15;;
44169;SDS011;29836;52.286;9.576;2023-07-13T05:36:31;7.03;;;1.90;;
44169;SDS011;29836;52.286;9.576;2023-07-13T05:38:56;6.20;;;2.17;;
44169;SDS011;29836;52.286;9.576;2023-07-13T05:41:22;4.95;;;2.05;;
44169;SDS011;29836;52.286;9.576;2023-07-13T05:43:48;7.82;;;2.17;;
44169;SDS011;29836;52.286;9.576;2023-07-13T05:46:14;9.20;;;2.50;;
44169;SDS011;29836;52.286;9.576;2023-07-13T05:48:39;4.05;;;2.05;;
44169;SDS011;29836;52.286;9.576;2023-07-13T05:51:05;5.22;;;2.08;;
44169;SDS011;29836;52.286;9.576;2023-07-13T05:53:30;4.88;;;2.13;;
44169;SDS011;29836;52.286;9.576;2023-07-13T05:55:56;4.47;;;2.13;;
44169;SDS011;29836;52.286;9.576;2023-07-13T05:58:21;6.25;;;2.45;;
44169;SDS011;29836;52.286;9.576;2023-07-13T06:00:48;16.25;;;2.45;;
44169;SDS011;29836;52.286;9.576;2023-07-13T06:03:14;5.30;;;2.20;;
44169;SDS011;29836;52.286;9.576;2023-07-13T06:05:41;7.15;;;2.03;;
44169;SDS011;29836;52.286;9.576;2023-07-13T06:08:07;5.70;;;2.08;;
44169;SDS011;29836;52.286;9.576;2023-07-13T06:10:33;9.32;;;2.20;;
44169;SDS011;29836;52.286;9.576;2023-07-13T06:13:02;7.15;;;2.00;;
44169;SDS011;29836;52.286;9.576;2023-07-13T06:15:28;4.25;;;2.05;;
44169;SDS011;29836;52.286;9.576;2023-07-13T06:17:53;7.47;;;2.10;;
44169;SDS011;29836;52.286;9.576;2023-07-13T06:20:19;5.03;;;2.03;;
44169;SDS011;29836;52.286;9.576;2023-07-13T06:22:44;8.85;;;2.03;;
44169;SDS011;29836;52.286;9.576;2023-07-13T06:25:10;7.60;;;2.25;;
44169;SDS011;29836;52.286;9.576;2023-07-13T06:27:35;3.95;;;2.00;;
44169;SDS011;29836;52.286;9.576;2023-07-13T06:30:01;5.28;;;2.00;;
44169;SDS011;29836;52.286;9.576;2023-07-13T06:32:27;8.95;;;2.58;;
44169;SDS011;29836;52.286;9.576;2023-07-13T06:34:52;5.97;;;2.13;;
44169;SDS011;29836;52.286;9.576;2023-07-13T06:37:18;8.70;;;2.20;;
44169;SDS011;29836;52.286;9.576;2023-07-13T06:39:43;6.30;;;2.10;;
44169;SDS011;29836;52.286;9.576;2023-07-13T06:42:09;6.72;;;2.00;;
44169;SDS011;29836;52.286;9.576;2023-07-13T06:44:35;7.22;;;2.20;;
44169;SDS011;29836;52.286;9.576;2023-07-13T06:47:01;6.22;;;1.80;;
44169;SDS011;29836;52.286;9.576;2023-07-13T06:49:26;4.80;;;1.73;;
44169;SDS011;29836;52.286;9.576;2023-07-13T06:51:52;5.25;;;1.88;;
44169;SDS011;29836;52.286;9.576;2023-07-13T06:54:17;6.57;;;2.03;;
44169;SDS011;29836;52.286;9.576;2023-07-13T06:56:43;7.18;;;2.10;;
44169;SDS011;29836;52.286;9.576;2023-07-13T06:59:08;6.25;;;1.80;;
44169;SDS011;29836;52.286;9.576;2023-07-13T07:01:34;4.50;;;1.85;;
44169;SDS011;29836;52.286;9.576;2023-07-13T07:04:00;5.78;;;1.70;;
44169;SDS011;29836;52.286;9.576;2023-07-13T07:06:25;6.55;;;1.80;;
44169;SDS011;29836;52.286;9.576;2023-07-13T07:08:51;5.75;;;1.88;;
44169;SDS011;29836;52.286;9.576;2023-07-13T07:11:18;4.93;;;1.70;;
44169;SDS011;29836;52.286;9.576;2023-07-13T07:13:47;4.18;;;1.80;;
44169;SDS011;29836;52.286;9.576;2023-07-13T07:16:13;5.57;;;1.80;;
44169;SDS011;29836;52.286;9.576;2023-07-13T07:18:38;4.53;;;1.77;;
44169;SDS011;29836;52.286;9.576;2023-07-13T07:21:04;5.40;;;1.80;;
44169;SDS011;29836;52.286;9.576;2023-07-13T07:23:29;8.23;;;2.00;;
44169;SDS011;29836;52.286;9.576;2023-07-13T07:25:55;6.20;;;1.70;;
44169;SDS011;29836;52.286;9.576;2023-07-13T07:28:21;7.13;;;1.92;;
44169;SDS011;29836;52.286;9.576;2023-07-13T07:30:47;4.38;;;1.42;;
44169;SDS011;29836;52.286;9.576;2023-07-13T07:33:13;5.18;;;1.60;;
44169;SDS011;29836;52.286;9.576;2023-07-13T07:35:39;4.85;;;1.70;;
44169;SDS011;29836;52.286;9.576;2023-07-13T07:38:05;4.32;;;1.50;;
44169;SDS011;29836;52.286;9.576;2023-07-13T07:40:31;4.20;;;1.42;;
44169;SDS011;29836;52.286;9.576;2023-07-13T07:42:57;6.07;;;1.75;;
44169;SDS011;29836;52.286;9.576;2023-07-13T07:45:23;5.78;;;1.85;;
44169;SDS011;29836;52.286;9.576;2023-07-13T07:47:48;7.25;;;1.55;;
44169;SDS011;29836;52.286;9.576;2023-07-13T07:50:14;6.05;;;1.63;;
44169;SDS011;29836;52.286;9.576;2023-07-13T07:52:40;4.43;;;1.52;;
44169;SDS011;29836;52.286;9.576;2023-07-13T07:55:06;5.32;;;1.75;;
44169;SDS011;29836;52.286;9.576;2023-07-13T07:57:32;5.75;;;1.52;;
44169;SDS011;29836;52.286;9.576;2023-07-13T07:59:58;2.67;;;1.40;;
44169;SDS011;29836;52.286;9.576;2023-07-13T08:02:26;4.97;;;1.90;;
44169;SDS011;29836;52.286;9.576;2023-07-13T08:04:52;4.53;;;1.92;;
44169;SDS011;29836;52.286;9.576;2023-07-13T08:07:18;5.28;;;1.73;;
44169;SDS011;29836;52.286;9.576;2023-07-13T08:09:43;4.25;;;1.52;;
44169;SDS011;29836;52.286;9.576;2023-07-13T08:12:09;3.88;;;1.45;;
44169;SDS011;29836;52.286;9.576;2023-07-13T08:14:34;5.43;;;1.73;;
44169;SDS011;29836;52.286;9.576;2023-07-13T08:17:00;5.47;;;1.52;;
44169;SDS011;29836;52.286;9.576;2023-07-13T08:19:25;6.90;;;1.88;;
44169;SDS011;29836;52.286;9.576;2023-07-13T08:21:51;10.20;;;1.83;;
44169;SDS011;29836;52.286;9.576;2023-07-13T08:24:16;8.30;;;1.88;;
44169;SDS011;29836;52.286;9.576;2023-07-13T08:26:43;4.50;;;1.80;;
44169;SDS011;29836;52.286;9.576;2023-07-13T08:29:11;5.70;;;1.90;;
44169;SDS011;29836;52.286;9.576;2023-07-13T08:31:36;6.93;;;1.90;;
44169;SDS011;29836;52.286;9.576;2023-07-13T08:34:02;8.95;;;1.90;;
44169;SDS011;29836;52.286;9.576;2023-07-13T08:36:28;5.75;;;1.88;;
44169;SDS011;29836;52.286;9.576;2023-07-13T08:38:54;5.93;;;2.13;;
44169;SDS011;29836;52.286;9.576;2023-07-13T08:41:20;6.93;;;1.58;;
44169;SDS011;29836;52.286;9.576;2023-07-13T08:43:47;4.85;;;1.75;;
44169;SDS011;29836;52.286;9.576;2023-07-13T08:46:21;6.25;;;1.80;;
44169;SDS011;29836;52.286;9.576;2023-07-13T08:49:09;4.63;;;1.70;;
44169;SDS011;29836;52.286;9.576;2023-07-13T08:54:17;7.10;;;2.40;;
44169;SDS011;29836;52.286;9.576;2023-07-13T08:56:43;3.67;;;1.55;;
44169;SDS011;29836;52.286;9.576;2023-07-13T08:59:13;4.45;;;1.85;;
44169;SDS011;29836;52.286;9.576;2023-07-13T09:01:53;5.75;;;1.60;;
44169;SDS011;29836;52.286;9.576;2023-07-13T09:04:45;5.13;;;2.03;;
44169;SDS011;29836;52.286;9.576;2023-07-13T09:07:29;3.92;;;1.50;;
44169;SDS011;29836;52.286;9.576;2023-07-13T09:10:30;5.10;;;1.73;;
44169;SDS011;29836;52.286;9.576;2023-07-13T09:13:11;5.78;;;2.05;;
44169;SDS011;29836;52.286;9.576;2023-07-13T09:15:43;5.03;;;1.75;;
44169;SDS011;29836;52.286;9.576;2023-07-13T09:18:27;6.70;;;2.30;;
44169;SDS011;29836;52.286;9.576;2023-07-13T09:21:05;4.70;;;1.77;;
44169;SDS011;29836;52.286;9.576;2023-07-13T09:23:36;5.32;;;1.83;;
44169;SDS011;29836;52.286;9.576;2023-07-13T09:26:19;6.20;;;2.05;;
44169;SDS011;29836;52.286;9.576;2023-07-13T09:28:47;6.88;;;1.88;;
44169;SDS011;29836;52.286;9.576;2023-07-13T09:31:28;5.93;;;1.65;;
44169;SDS011;29836;52.286;9.576;2023-07-13T09:33:59;6.05;;;1.90;;
44169;SDS011;29836;52.286;9.576;2023-07-13T09:36:29;6.90;;;1.88;;
44169;SDS011;29836;52.286;9.576;2023-07-13T09:41:51;4.22;;;1.67;;
44169;SDS011;29836;52.286;9.576;2023-07-13T09:44:51;5.70;;;1.77;;
44169;SDS011;29836;52.286;9.576;2023-07-13T09:47:31;5.60;;;1.48;;
44169;SDS011;29836;52.286;9.576;2023-07-13T09:50:04;7.03;;;1.60;;
44169;SDS011;29836;52.286;9.576;2023-07-13T09:52:49;4.40;;;1.58;;
44169;SDS011;29836;52.286;9.576;2023-07-13T09:55:25;6.05;;;1.90;;
44169;SDS011;29836;52.286;9.576;2023-07-13T09:57:53;5.65;;;1.58;;
44169;SDS011;29836;52.286;9.576;2023-07-13T10:00:27;6.13;;;1.60;;
44169;SDS011;29836;52.286;9.576;2023-07-13T10:05:48;4.10;;;1.33;;
44169;SDS011;29836;52.286;9.576;2023-07-13T10:08:18;4.63;;;1.48;;
44169;SDS011;29836;52.286;9.576;2023-07-13T10:11:02;4.90;;;1.70;;
44169;SDS011;29836;52.286;9.576;2023-07-13T10:13:36;4.30;;;1.60;;
44169;SDS011;29836;52.286;9.576;2023-07-13T10:16:07;5.63;;;1.40;;
44169;SDS011;29836;52.286;9.576;2023-07-13T10:18:37;4.15;;;1.50;;
44169;SDS011;29836;52.286;9.576;2023-07-13T10:21:38;3.25;;;1.38;;
44169;SDS011;29836;52.286;9.576;2023-07-13T10:24:23;3.40;;;1.35;;
44169;SDS011;29836;52.286;9.576;2023-07-13T10:27:36;3.38;;;1.35;;
44169;SDS011;29836;52.286;9.576;2023-07-13T10:29:44;3.33;;;1.40;;
44169;SDS011;29836;52.286;9.576;2023-07-13T10:32:13;2.90;;;1.23;;
44169;SDS011;29836;52.286;9.576;2023-07-13T10:34:43;5.10;;;1.67;;
44169;SDS011;29836;52.286;9.576;2023-07-13T10:40:14;4.13;;;1.60;;
44169;SDS011;29836;52.286;9.576;2023-07-13T10:42:45;3.97;;;1.63;;
44169;SDS011;29836;52.286;9.576;2023-07-13T10:45:18;2.40;;;1.20;;
44169;SDS011;29836;52.286;9.576;2023-07-13T10:47:47;4.25;;;1.63;;
44169;SDS011;29836;52.286;9.576;2023-07-13T10:50:21;4.22;;;1.45;;
44169;SDS011;29836;52.286;9.576;2023-07-13T10:52:48;5.07;;;1.50;;
44169;SDS011;29836;52.286;9.576;2023-07-13T10:58:13;3.10;;;1.38;;
44169;SDS011;29836;52.286;9.576;2023-07-13T11:03:28;3.90;;;1.63;;
44169;SDS011;29836;52.286;9.576;2023-07-13T11:06:07;3.85;;;1.50;;
44169;SDS011;29836;52.286;9.576;2023-07-13T11:11:45;3.15;;;1.52;;
44169;SDS011;29836;52.286;9.576;2023-07-13T11:27:50;2.53;;;1.30;;
44169;SDS011;29836;52.286;9.576;2023-07-13T11:30:22;2.53;;;1.30;;
44169;SDS011;29836;52.286;9.576;2023-07-13T11:35:40;4.85;;;1.35;;
44169;SDS011;29836;52.286;9.576;2023-07-13T11:38:12;3.13;;;1.50;;
44169;SDS011;29836;52.286;9.576;2023-07-13T11:40:47;2.60;;;1.35;;
44169;SDS011;29836;52.286;9.576;2023-07-13T11:43:17;2.67;;;1.27;;
44169;SDS011;29836;52.286;9.576;2023-07-13T11:45:43;3.42;;;1.60;;
44169;SDS011;29836;52.286;9.576;2023-07-13T11:48:26;5.57;;;1.42;;
44169;SDS011;29836;52.286;9.576;2023-07-13T11:51:01;4.43;;;1.50;;
44169;SDS011;29836;52.286;9.576;2023-07-13T11:53:40;4.10;;;1.55;;
44169;SDS011;29836;52.286;9.576;2023-07-13T11:56:10;5.28;;;1.35;;
44169;SDS011;29836;52.286;9.576;2023-07-13T11:58:35;4.25;;;1.55;;
44169;SDS011;29836;52.286;9.576;2023-07-13T12:01:01;5.28;;;1.55;;
44169;SDS011;29836;52.286;9.576;2023-07-13T12:03:29;3.38;;;1.40;;
44169;SDS011;29836;52.286;9.576;2023-07-13T12:06:04;3.05;;;1.30;;
44169;SDS011;29836;52.286;9.576;2023-07-13T12:08:41;4.70;;;1.70;;
44169;SDS011;29836;52.286;9.576;2023-07-13T12:11:13;7.13;;;1.77;;
44169;SDS011;29836;52.286;9.576;2023-07-13T12:13:41;3.55;;;1.75;;
44169;SDS011;29836;52.286;9.576;2023-07-13T12:18:57;4.97;;;1.65;;
44169;SDS011;29836;52.286;9.576;2023-07-13T12:21:31;3.58;;;1.38;;
44169;SDS011;29836;52.286;9.576;2023-07-13T12:23:59;3.95;;;1.63;;
44169;SDS011;29836;52.286;9.576;2023-07-13T12:26:29;4.28;;;1.80;;
44169;SDS011;29836;52.286;9.576;2023-07-13T12:28:55;5.07;;;1.73;;
44169;SDS011;29836;52.286;9.576;2023-07-13T12:31:30;3.90;;;1.80;;
44169;SDS011;29836;52.286;9.576;2023-07-13T12:34:10;3.85;;;1.50;;
44169;SDS011;29836;52.286;9.576;2023-07-13T12:36:37;7.03;;;1.73;;
44169;SDS011;29836;52.286;9.576;2023-07-13T12:44:53;3.53;;;1.50;;
44169;SDS011;29836;52.286;9.576;2023-07-13T12:47:23;3.95;;;1.50;;
44169;SDS011;29836;52.286;9.576;2023-07-13T12:49:58;3.22;;;1.70;;
44169;SDS011;29836;52.286;9.576;2023-07-13T12:55:05;3.43;;;1.67;;
44169;SDS011;29836;52.286;9.576;2023-07-13T12:57:44;3.33;;;1.65;;
44169;SDS011;29836;52.286;9.576;2023-07-13T13:00:20;3.17;;;1.70;;
44169;SDS011;29836;52.286;9.576;2023-07-13T13:02:46;7.45;;;1.95;;
44169;SDS011;29836;52.286;9.576;2023-07-13T13:05:15;8.55;;;2.20;;
44169;SDS011;29836;52.286;9.576;2023-07-13T13:07:40;8.18;;;2.35;;
44169;SDS011;29836;52.286;9.576;2023-07-13T13:10:11;10.32;;;2.67;;
44169;SDS011;29836;52.286;9.576;2023-07-13T13:12:38;5.57;;;2.40;;
44169;SDS011;29836;52.286;9.576;2023-07-13T13:15:04;7.07;;;2.58;;
44169;SDS011;29836;52.286;9.576;2023-07-13T13:17:31;8.80;;;3.90;;
44169;SDS011;29836;52.286;9.576;2023-07-13T13:19:57;8.77;;;4.07;;
44169;SDS011;29836;52.286;9.576;2023-07-13T13:22:23;6.05;;;3.78;;
44169;SDS011;29836;52.286;9.576;2023-07-13T13:24:48;9.30;;;3.83;;
44169;SDS011;29836;52.286;9.576;2023-07-13T13:27:18;8.77;;;4.05;;
44169;SDS011;29836;52.286;9.576;2023-07-13T13:29:46;6.20;;;3.75;;
44169;SDS011;29836;52.286;9.576;2023-07-13T13:32:14;7.35;;;3.58;;
44169;SDS011;29836;52.286;9.576;2023-07-13T13:34:40;6.72;;;3.90;;
44169;SDS011;29836;52.286;9.576;2023-07-13T13:37:17;5.88;;;3.42;;
44169;SDS011;29836;52.286;9.576;2023-07-13T13:39:48;5.07;;;2.40;;
44169;SDS011;29836;52.286;9.576;2023-07-13T13:42:14;4.38;;;2.70;;
44169;SDS011;29836;52.286;9.576;2023-07-13T13:44:40;4.15;;;2.35;;
44169;SDS011;29836;52.286;9.576;2023-07-13T13:47:07;5.47;;;2.40;;
44169;SDS011;29836;52.286;9.576;2023-07-13T13:49:45;4.57;;;2.45;;
44169;SDS011;29836;52.286;9.576;2023-07-13T13:52:12;3.65;;;1.77;;
44169;SDS011;29836;52.286;9.576;2023-07-13T13:54:37;5.35;;;2.05;;
44169;SDS011;29836;52.286;9.576;2023-07-13T13:57:03;6.72;;;2.22;;
44169;SDS011;29836;52.286;9.576;2023-07-13T13:59:29;5.47;;;2.38;;
44169;SDS011;29836;52.286;9.576;2023-07-13T14:01:57;4.63;;;2.33;;
44169;SDS011;29836;52.286;9.576;2023-07-13T14:04:25;3.88;;;2.05;;
44169;SDS011;29836;52.286;9.576;2023-07-13T14:06:50;4.38;;;2.15;;
44169;SDS011;29836;52.286;9.576;2023-07-13T14:09:17;4.47;;;2.00;;
44169;SDS011;29836;52.286;9.576;2023-07-13T14:11:44;3.58;;;1.85;;
44169;SDS011;29836;52.286;9.576;2023-07-13T14:14:17;3.50;;;2.00;;
44169;SDS011;29836;52.286;9.576;2023-07-13T14:16:47;3.53;;;1.77;;
44169;SDS011;29836;52.286;9.576;2023-07-13T14:19:18;2.78;;;1.77;;
44169;SDS011;29836;52.286;9.576;2023-07-13T14:21:44;3.15;;;1.70;;
44169;SDS011;29836;52.286;9.576;2023-07-13T14:24:09;3.92;;;1.80;;
44169;SDS011;29836;52.286;9.576;2023-07-13T14:26:36;3.60;;;1.73;;
44169;SDS011;29836;52.286;9.576;2023-07-13T14:29:05;3.05;;;1.70;;
44169;SDS011;29836;52.286;9.576;2023-07-13T14:31:37;4.50;;;2.00;;
44169;SDS011;29836;52.286;9.576;2023-07-13T14:34:02;6.90;;;2.00;;
44169;SDS011;29836;52.286;9.576;2023-07-13T14:36:29;4.38;;;2.03;;
44169;SDS011;29836;52.286;9.576;2023-07-13T14:39:00;3.55;;;1.85;;
44169;SDS011;29836;52.286;9.576;2023-07-13T14:41:35;3.47;;;2.00;;
44169;SDS011;29836;52.286;9.576;2023-07-13T14:44:00;4.10;;;2.33;;
44169;SDS011;29836;52.286;9.576;2023-07-13T14:46:30;5.38;;;2.40;;
44169;SDS011;29836;52.286;9.576;2023-07-13T14:52:21;3.33;;;1.80;;
44169;SDS011;29836;52.286;9.576;2023-07-13T14:54:48;4.75;;;2.10;;
44169;SDS011;29836;52.286;9.576;2023-07-13T14:57:15;2.80;;;1.85;;
44169;SDS011;29836;52.286;9.576;2023-07-13T14:59:43;3.90;;;2.30;;
44169;SDS011;29836;52.286;9.576;2023-07-13T15:04:53;3.92;;;2.15;;
44169;SDS011;29836;52.286;9.576;2023-07-13T15:07:19;5.20;;;2.20;;
44169;SDS011;29836;52.286;9.576;2023-07-13T15:09:45;3.63;;;2.20;;
44169;SDS011;29836;52.286;9.576;2023-07-13T15:12:12;3.72;;;2.30;;
44169;SDS011;29836;52.286;9.576;2023-07-13T15:14:39;5.20;;;2.40;;
44169;SDS011;29836;52.286;9.576;2023-07-13T15:17:04;4.47;;;2.45;;
44169;SDS011;29836;52.286;9.576;2023-07-13T15:19:30;3.65;;;2.40;;
44169;SDS011;29836;52.286;9.576;2023-07-13T15:21:57;5.88;;;2.78;;
44169;SDS011;29836;52.286;9.576;2023-07-13T15:24:22;4.05;;;2.80;;
44169;SDS011;29836;52.286;9.576;2023-07-13T15:26:48;3.88;;;2.60;;
44169;SDS011;29836;52.286;9.576;2023-07-13T15:29:15;3.78;;;2.40;;
44169;SDS011;29836;52.286;9.576;2023-07-13T15:31:42;6.13;;;2.80;;
44169;SDS011;29836;52.286;9.576;2023-07-13T15:34:11;5.32;;;2.50;;
44169;SDS011;29836;52.286;9.576;2023-07-13T15:36:39;4.90;;;2.42;;
44169;SDS011;29836;52.286;9.576;2023-07-13T15:39:05;3.40;;;2.22;;
44169;SDS011;29836;52.286;9.576;2023-07-13T15:41:31;5.43;;;2.60;;
44169;SDS011;29836;52.286;9.576;2023-07-13T15:43:59;4.15;;;2.35;;
44169;SDS011;29836;52.286;9.576;2023-07-13T15:46:30;2.90;;;2.15;;
44169;SDS011;29836;52.286;9.576;2023-07-13T15:48:56;4.53;;;1.90;;
44169;SDS011;29836;52.286;9.576;2023-07-13T15:51:25;3.47;;;2.03;;